Time;durP1;ratioP1;P1;durP2;ratioP2;P2;SDS_P1;SDS_P2;PMS_P1;PMS_P2;Temp;Humidity;BMP_temperature;BMP_pressure;BME280_temperature;BME280_humidity;BME280_pressure;Samples;Min_cycle;Max_cycle;Signal;HPM_P1;HPM_P2
2021/12/27 00:01:19;;;;;;;5.78;5.00;;;9.10;83.20;;;;;;7368912;19;20131;-40
2021/12/27 00:03:51;;;;;;;4.95;4.50;;;9.10;83.90;;;;;;7368303;19;20670;-40
2021/12/27 00:06:21;;;;;;;7.47;5.15;;;9.10;84.60;;;;;;7371161;19;20132;-40
2021/12/27 00:08:51;;;;;;;6.10;4.97;;;9.00;84.00;;;;;;7367354;19;20472;-40
2021/12/27 00:11:21;;;;;;;5.38;4.88;;;9.10;84.20;;;;;;7366642;19;20167;-40
2021/12/27 00:13:51;;;;;;;6.53;5.82;;;9.10;84.20;;;;;;7373111;19;20511;-40
2021/12/27 00:16:21;;;;;;;6.55;4.85;;;9.00;84.30;;;;;;7371441;19;20128;-40
2021/12/27 00:18:53;;;;;;;6.70;4.50;;;9.00;84.60;;;;;;7371053;19;20670;-40
2021/12/27 00:21:25;;;;;;;6.15;4.65;;;9.00;84.30;;;;;;7371372;19;20135;-40
2021/12/27 00:23:54;;;;;;;5.47;4.93;;;9.00;84.10;;;;;;7368497;19;20143;-40
2021/12/27 00:26:24;;;;;;;6.15;4.72;;;9.00;83.70;;;;;;7373008;19;20704;-40
2021/12/27 00:28:53;;;;;;;6.13;5.00;;;9.00;83.90;;;;;;7370617;19;20130;-40
2021/12/27 00:31:23;;;;;;;8.00;5.55;;;9.00;83.60;;;;;;7371164;19;20138;-37
2021/12/27 00:33:55;;;;;;;6.45;4.55;;;9.00;83.80;;;;;;7367351;19;20722;-37
2021/12/27 00:36:24;;;;;;;9.50;5.15;;;9.10;84.00;;;;;;7366644;19;20151;-36
2021/12/27 00:38:54;;;;;;;6.45;4.43;;;9.10;83.70;;;;;;7369260;19;20132;-37
2021/12/27 00:41:23;;;;;;;7.68;5.55;;;9.10;83.40;;;;;;7366075;19;20135;-36
2021/12/27 00:43:53;;;;;;;7.30;5.60;;;9.10;83.00;;;;;;7370056;19;20131;-37
2021/12/27 00:46:25;;;;;;;8.25;6.03;;;9.10;83.60;;;;;;7367969;19;20589;-37
2021/12/27 00:48:57;;;;;;;6.88;5.50;;;9.10;83.70;;;;;;7364035;19;20135;-36
2021/12/27 00:51:26;;;;;;;5.50;4.95;;;9.10;83.60;;;;;;7370215;19;20124;-37
2021/12/27 00:53:56;;;;;;;6.05;5.32;;;9.10;83.60;;;;;;7374376;19;20677;-37
2021/12/27 00:56:28;;;;;;;6.15;5.30;;;9.10;84.00;;;;;;7367355;19;20123;-37
2021/12/27 00:58:57;;;;;;;7.72;5.25;;;9.10;83.80;;;;;;7371611;19;20127;-37
2021/12/27 01:01:29;;;;;;;7.78;5.45;;;9.00;83.80;;;;;;7377795;19;20495;-40
2021/12/27 01:04:01;;;;;;;6.60;5.25;;;9.00;83.90;;;;;;7375105;19;20613;-40
2021/12/27 01:06:31;;;;;;;8.23;5.45;;;9.10;83.70;;;;;;7375451;19;20135;-40
2021/12/27 01:09:00;;;;;;;7.45;6.07;;;9.00;83.50;;;;;;7371655;19;20128;-40
2021/12/27 01:11:39;;;;;;;7.30;5.93;;;9.10;83.60;;;;;;7364223;19;20163;-40
2021/12/27 01:14:14;;;;;;;6.82;5.10;;;9.00;83.10;;;;;;7374114;19;20141;-40
2021/12/27 01:16:45;;;;;;;8.88;5.70;;;9.00;82.50;;;;;;7374592;19;20134;-40
2021/12/27 01:19:20;;;;;;;9.93;5.10;;;9.00;82.10;;;;;;7371604;19;20493;-40
2021/12/27 01:21:52;;;;;;;7.45;5.55;;;9.00;82.30;;;;;;7373799;19;20131;-40
2021/12/27 01:24:22;;;;;;;6.50;5.00;;;9.00;82.20;;;;;;7378934;19;20128;-40
2021/12/27 01:26:51;;;;;;;6.75;5.18;;;9.00;81.70;;;;;;7371526;19;20709;-40
2021/12/27 01:29:23;;;;;;;6.95;5.43;;;8.90;82.30;;;;;;7373875;19;20124;-40
2021/12/27 01:31:53;;;;;;;6.88;4.60;;;8.80;81.70;;;;;;7375902;19;20134;-40
2021/12/27 01:34:29;;;;;;;6.38;5.13;;;8.80;81.80;;;;;;7375625;19;20136;-40
2021/12/27 01:36:59;;;;;;;8.75;4.90;;;8.80;82.20;;;;;;7368184;19;20570;-40
2021/12/27 01:39:29;;;;;;;6.32;5.32;;;8.70;82.40;;;;;;7375262;19;20612;-36
2021/12/27 01:41:59;;;;;;;8.00;5.60;;;8.60;82.80;;;;;;7369212;19;20135;-36
2021/12/27 01:44:31;;;;;;;7.90;5.53;;;8.60;82.80;;;;;;7374680;19;20618;-37
2021/12/27 01:47:01;;;;;;;10.68;5.95;;;8.60;82.90;;;;;;7374043;19;20139;-36
2021/12/27 01:49:33;;;;;;;6.95;5.90;;;8.60;82.60;;;;;;7373225;19;20127;-37
2021/12/27 01:52:02;;;;;;;8.65;6.05;;;8.50;82.90;;;;;;7368551;19;20148;-36
2021/12/27 01:54:32;;;;;;;7.18;5.40;;;8.60;83.50;;;;;;7365441;19;20132;-37
2021/12/27 01:57:02;;;;;;;6.75;5.40;;;8.50;83.10;;;;;;7375136;19;20143;-36
2021/12/27 01:59:31;;;;;;;9.00;5.38;;;8.40;83.10;;;;;;7375189;19;20128;-36
2021/12/27 02:02:01;;;;;;;7.60;5.20;;;8.40;83.20;;;;;;7377411;19;20131;-37
2021/12/27 02:04:33;;;;;;;8.07;4.72;;;8.30;83.30;;;;;;7372346;19;20187;-36
2021/12/27 02:07:02;;;;;;;9.15;5.80;;;8.30;83.60;;;;;;7366588;19;20132;-37
2021/12/27 02:09:44;;;;;;;7.28;4.38;;;8.30;83.70;;;;;;7371448;19;20131;-40
2021/12/27 02:12:13;;;;;;;6.97;4.90;;;8.30;83.80;;;;;;7371180;19;20536;-40
2021/12/27 02:14:43;;;;;;;7.00;5.35;;;8.30;83.90;;;;;;7371601;19;20131;-40
2021/12/27 02:17:12;;;;;;;8.27;5.75;;;8.30;83.90;;;;;;7369861;19;20128;-40
2021/12/27 02:19:51;;;;;;;6.82;5.10;;;8.30;83.30;;;;;;7374172;19;20124;-40
2021/12/27 02:22:21;;;;;;;7.60;6.18;;;8.30;83.30;;;;;;7378381;19;20135;-40
2021/12/27 02:24:51;;;;;;;7.72;4.60;;;8.40;83.50;;;;;;7373713;19;20144;-40
2021/12/27 02:27:20;;;;;;;5.55;4.63;;;8.30;83.30;;;;;;7377404;19;20131;-40
2021/12/27 02:29:50;;;;;;;5.30;4.32;;;8.30;83.30;;;;;;7369158;19;20132;-40
2021/12/27 02:32:19;;;;;;;5.50;4.05;;;8.30;83.60;;;;;;7373095;19;20135;-40
2021/12/27 02:34:52;;;;;;;7.05;4.60;;;8.40;83.00;;;;;;7374832;19;20132;-40
2021/12/27 02:37:21;;;;;;;6.28;3.92;;;8.40;83.30;;;;;;7372633;19;20151;-40
2021/12/27 02:39:51;;;;;;;6.45;3.42;;;8.40;82.70;;;;;;7371977;19;20143;-40
2021/12/27 02:42:21;;;;;;;4.85;4.07;;;8.40;82.70;;;;;;7370744;19;20124;-40
2021/12/27 02:44:53;;;;;;;3.75;3.28;;;8.50;82.90;;;;;;7374084;19;20135;-40
2021/12/27 02:47:22;;;;;;;5.07;3.40;;;8.50;82.70;;;;;;7366112;19;20128;-40
2021/12/27 02:49:55;;;;;;;4.53;3.30;;;8.40;82.80;;;;;;7371885;19;20135;-40
2021/12/27 02:52:26;;;;;;;4.45;3.03;;;8.50;83.10;;;;;;7363407;19;20139;-40
2021/12/27 02:54:56;;;;;;;4.32;3.30;;;8.50;82.70;;;;;;7366810;19;20139;-40
2021/12/27 02:57:25;;;;;;;4.35;3.40;;;8.40;82.70;;;;;;7363385;19;20127;-40
2021/12/27 02:59:57;;;;;;;3.20;2.90;;;8.40;83.10;;;;;;7368960;19;20135;-40
2021/12/27 03:02:26;;;;;;;4.18;3.63;;;8.30;83.20;;;;;;7373122;19;20616;-40
2021/12/27 03:04:58;;;;;;;3.88;2.80;;;8.30;83.50;;;;;;7375775;19;20135;-40
2021/12/27 03:07:28;;;;;;;4.70;2.70;;;8.30;83.50;;;;;;7370570;19;20140;-40
2021/12/27 03:09:58;;;;;;;3.85;2.67;;;8.30;83.90;;;;;;7372022;19;20124;-37
2021/12/27 03:12:30;;;;;;;3.97;3.38;;;8.20;83.90;;;;;;7370132;19;20132;-37
2021/12/27 03:15:02;;;;;;;4.20;2.88;;;8.20;84.00;;;;;;7367981;19;20208;-36
2021/12/27 03:17:32;;;;;;;2.60;2.15;;;8.30;83.30;;;;;;7371550;19;20135;-37
2021/12/27 03:20:08;;;;;;;3.65;2.60;;;8.40;83.10;;;;;;7374579;19;21359;-37
2021/12/27 03:22:40;;;;;;;3.65;2.97;;;8.50;82.60;;;;;;7368631;19;20135;-37
2021/12/27 03:25:12;;;;;;;2.58;2.25;;;8.50;82.20;;;;;;7373598;19;20131;-36
2021/12/27 03:27:41;;;;;;;2.53;2.33;;;8.50;81.60;;;;;;7370065;19;20132;-37
2021/12/27 03:30:14;;;;;;;3.80;2.75;;;8.50;81.40;;;;;;7371107;19;20607;-37
2021/12/27 03:32:44;;;;;;;3.92;2.70;;;8.50;82.20;;;;;;7370315;19;20120;-37
2021/12/27 03:35:25;;;;;;;3.55;2.60;;;8.50;81.60;;;;;;7370547;19;20463;-37
2021/12/27 03:37:58;;;;;;;3.60;2.55;;;8.50;81.50;;;;;;7369578;19;20223;-37
2021/12/27 03:40:30;;;;;;;3.72;2.55;;;8.50;80.80;;;;;;7368961;19;20131;-40
2021/12/27 03:43:00;;;;;;;2.38;1.92;;;8.60;81.10;;;;;;7362536;19;20128;-40
2021/12/27 03:45:32;;;;;;;2.45;2.20;;;8.50;81.20;;;;;;7368215;19;20483;-40
2021/12/27 03:48:02;;;;;;;3.10;2.45;;;8.50;80.90;;;;;;7366521;19;20134;-40
2021/12/27 03:50:34;;;;;;;2.72;1.88;;;8.50;80.90;;;;;;7370073;19;20140;-40
2021/12/27 03:53:05;;;;;;;2.22;1.80;;;8.50;80.60;;;;;;7367724;19;20123;-40
2021/12/27 03:55:35;;;;;;;2.65;2.20;;;8.50;80.20;;;;;;7355290;19;20132;-40
2021/12/27 03:58:10;;;;;;;2.40;2.10;;;8.50;80.50;;;;;;7368808;19;20127;-40
2021/12/27 04:01:00;;;;;;;3.20;2.40;;;8.50;80.40;;;;;;7368168;19;20134;-40
2021/12/27 04:03:31;;;;;;;1.70;1.52;;;8.50;80.90;;;;;;7369740;19;20132;-40
2021/12/27 04:06:03;;;;;;;2.38;1.80;;;8.60;80.30;;;;;;7366355;19;20152;-40
2021/12/27 04:08:33;;;;;;;2.83;2.00;;;8.50;80.60;;;;;;7373372;19;20153;-40
2021/12/27 04:11:02;;;;;;;1.58;1.48;;;8.50;79.80;;;;;;7363602;19;20765;-40
2021/12/27 04:13:33;;;;;;;1.70;1.60;;;8.60;80.40;;;;;;7367309;19;20139;-40
2021/12/27 04:16:02;;;;;;;2.03;1.73;;;8.60;79.60;;;;;;7368499;19;20147;-40
2021/12/27 04:18:32;;;;;;;1.70;1.35;;;8.60;79.40;;;;;;7369706;19;20136;-40
2021/12/27 04:21:04;;;;;;;2.35;1.70;;;8.60;78.70;;;;;;7369153;19;20163;-40
2021/12/27 04:23:34;;;;;;;1.73;1.52;;;8.70;79.40;;;;;;7372587;19;20165;-40
2021/12/27 04:26:03;;;;;;;2.42;1.90;;;8.70;78.50;;;;;;7363221;19;20626;-40
2021/12/27 04:28:33;;;;;;;2.20;1.42;;;8.70;78.80;;;;;;7380851;19;20144;-40
2021/12/27 04:31:03;;;;;;;1.60;1.50;;;8.80;78.60;;;;;;7377011;19;20132;-41
2021/12/27 04:33:32;;;;;;;2.47;1.83;;;8.90;79.10;;;;;;7376625;19;20127;-40
2021/12/27 04:36:04;;;;;;;1.48;1.23;;;8.90;78.60;;;;;;7376745;19;20749;-40
2021/12/27 04:38:34;;;;;;;1.83;1.40;;;8.90;77.80;;;;;;7375039;19;20713;-40
2021/12/27 04:41:04;;;;;;;4.25;1.65;;;8.90;78.20;;;;;;7371693;19;20132;-40
2021/12/27 04:43:36;;;;;;;1.77;1.50;;;8.80;78.10;;;;;;7374100;19;20135;-40
2021/12/27 04:46:08;;;;;;;1.73;1.33;;;8.70;78.30;;;;;;7377366;19;20124;-40
2021/12/27 04:48:37;;;;;;;3.50;1.85;;;8.70;78.30;;;;;;7370725;19;20132;-40
2021/12/27 04:51:12;;;;;;;2.95;1.55;;;8.60;79.00;;;;;;7374238;19;20139;-40
2021/12/27 04:53:41;;;;;;;1.63;1.50;;;8.60;79.20;;;;;;7378582;19;20142;-40
2021/12/27 04:56:13;;;;;;;1.50;1.40;;;8.60;79.10;;;;;;7370761;19;20137;-40
2021/12/27 04:58:44;;;;;;;1.55;1.45;;;8.70;79.10;;;;;;7374213;19;20143;-40
2021/12/27 05:01:13;;;;;;;2.63;1.73;;;8.70;78.80;;;;;;7374817;19;20165;-40
2021/12/27 05:03:43;;;;;;;1.35;1.25;;;8.60;79.00;;;;;;7373993;19;20127;-40
2021/12/27 05:06:17;;;;;;;1.45;1.25;;;8.60;78.80;;;;;;7378098;19;20165;-40
2021/12/27 05:08:48;;;;;;;1.50;1.40;;;8.70;78.80;;;;;;7370513;19;20139;-40
2021/12/27 05:11:18;;;;;;;1.42;1.33;;;8.70;78.60;;;;;;7375019;19;20163;-40
2021/12/27 05:13:47;;;;;;;2.75;1.30;;;8.60;78.80;;;;;;7373516;19;20127;-40
2021/12/27 05:16:17;;;;;;;1.75;1.20;;;8.60;78.40;;;;;;7372571;19;20132;-40
2021/12/27 05:18:46;;;;;;;1.58;1.48;;;8.70;78.10;;;;;;7370441;19;20127;-40
2021/12/27 05:21:18;;;;;;;1.30;1.20;;;8.70;78.00;;;;;;7373142;19;20157;-40
2021/12/27 05:23:48;;;;;;;1.80;1.50;;;8.70;78.10;;;;;;7379215;19;20135;-40
2021/12/27 05:26:17;;;;;;;3.45;1.70;;;8.80;79.10;;;;;;7368965;19;20120;-40
2021/12/27 05:28:47;;;;;;;2.17;1.85;;;8.80;79.00;;;;;;7373135;19;20591;-40
2021/12/27 05:31:17;;;;;;;1.77;1.67;;;8.90;78.60;;;;;;7371740;19;20914;-40
2021/12/27 05:33:48;;;;;;;1.63;1.52;;;8.90;78.70;;;;;;7374415;19;20151;-40
2021/12/27 05:36:21;;;;;;;2.85;1.50;;;8.90;77.90;;;;;;7369951;19;20516;-40
2021/12/27 05:38:50;;;;;;;1.30;1.20;;;8.90;77.60;;;;;;7367315;19;20605;-40
2021/12/27 05:41:20;;;;;;;2.38;1.30;;;8.90;77.80;;;;;;7373285;19;20127;-40
2021/12/27 05:43:49;;;;;;;1.98;1.75;;;8.90;77.50;;;;;;7376426;19;20226;-40
2021/12/27 05:46:18;;;;;;;1.40;1.30;;;8.90;77.10;;;;;;7371382;19;20598;-40
2021/12/27 05:48:48;;;;;;;1.40;1.30;;;8.90;77.60;;;;;;7376756;19;20194;-40
2021/12/27 05:51:20;;;;;;;1.45;1.35;;;8.90;77.10;;;;;;7373679;19;20647;-40
2021/12/27 05:53:52;;;;;;;3.60;1.50;;;8.90;76.90;;;;;;7372505;19;20135;-40
2021/12/27 05:56:21;;;;;;;1.90;1.80;;;8.80;77.40;;;;;;7371183;19;20120;-40
2021/12/27 05:58:53;;;;;;;3.05;2.20;;;8.80;77.70;;;;;;7371225;19;20140;-40
2021/12/27 06:01:22;;;;;;;1.77;1.60;;;8.80;78.10;;;;;;7372028;19;20158;-40
2021/12/27 06:03:53;;;;;;;2.05;1.50;;;8.90;77.50;;;;;;7367694;19;20127;-40
2021/12/27 06:06:25;;;;;;;2.47;1.70;;;8.80;78.00;;;;;;7376518;19;20128;-40
2021/12/27 06:08:55;;;;;;;2.30;1.80;;;8.80;78.00;;;;;;7369427;19;20177;-40
2021/12/27 06:11:27;;;;;;;2.05;1.85;;;8.90;79.10;;;;;;7369186;19;20552;-40
2021/12/27 06:13:57;;;;;;;4.35;2.55;;;8.90;78.50;;;;;;7373566;19;20132;-40
2021/12/27 06:16:26;;;;;;;1.75;1.48;;;8.80;78.40;;;;;;7371787;19;20238;-40
2021/12/27 06:18:56;;;;;;;1.73;1.63;;;8.80;78.80;;;;;;7369433;19;20229;-40
2021/12/27 06:21:28;;;;;;;2.03;1.83;;;8.70;79.90;;;;;;7371934;19;20210;-40
2021/12/27 06:23:57;;;;;;;3.63;1.77;;;8.60;80.00;;;;;;7376757;19;20498;-40
2021/12/27 06:26:27;;;;;;;1.50;1.40;;;8.40;80.40;;;;;;7371497;19;20155;-40
2021/12/27 06:28:56;;;;;;;1.92;1.58;;;8.40;80.60;;;;;;7367930;19;20135;-40
2021/12/27 06:31:26;;;;;;;1.92;1.58;;;8.30;80.90;;;;;;7370136;19;20146;-40
2021/12/27 06:33:57;;;;;;;2.22;1.75;;;8.20;81.40;;;;;;7372506;19;20607;-40
2021/12/27 06:36:30;;;;;;;1.77;1.50;;;8.00;81.70;;;;;;7367542;19;20147;-40
2021/12/27 06:38:59;;;;;;;5.18;2.05;;;8.00;82.30;;;;;;7374606;19;20641;-41
2021/12/27 06:41:29;;;;;;;2.17;1.67;;;7.80;82.40;;;;;;7371533;19;20139;-40
2021/12/27 06:43:58;;;;;;;3.10;2.05;;;7.70;82.90;;;;;;7368424;19;20143;-40
2021/12/27 06:46:28;;;;;;;1.90;1.70;;;7.60;83.50;;;;;;7369484;19;20134;-40
2021/12/27 06:48:58;;;;;;;4.57;2.00;;;7.50;83.40;;;;;;7368341;19;20123;-40
2021/12/27 06:51:30;;;;;;;2.42;2.05;;;7.30;83.90;;;;;;7365716;19;20136;-40
2021/12/27 06:53:59;;;;;;;2.45;2.22;;;7.30;84.10;;;;;;7370568;19;20135;-40
2021/12/27 06:56:30;;;;;;;2.78;2.10;;;7.20;84.90;;;;;;7361247;19;20163;-40
2021/12/27 06:59:02;;;;;;;3.45;2.38;;;7.20;84.10;;;;;;7367870;19;20550;-40
2021/12/27 07:01:32;;;;;;;3.30;2.20;;;7.10;84.10;;;;;;7366512;19;20128;-40
2021/12/27 07:04:01;;;;;;;3.58;2.42;;;7.10;84.20;;;;;;7372535;19;20132;-40
2021/12/27 07:06:37;;;;;;;2.72;2.47;;;7.10;83.90;;;;;;7371434;19;20607;-40
2021/12/27 07:09:06;;;;;;;2.95;2.13;;;6.90;84.10;;;;;;7373115;19;20481;-40
2021/12/27 07:11:36;;;;;;;2.45;2.25;;;6.90;84.50;;;;;;7366831;19;20155;-37
2021/12/27 07:14:06;;;;;;;3.67;2.42;;;6.80;85.30;;;;;;7366136;19;20614;-37
2021/12/27 07:16:35;;;;;;;2.92;2.55;;;6.70;84.60;;;;;;7369657;19;20128;-37
2021/12/27 07:19:05;;;;;;;2.35;2.15;;;6.70;84.70;;;;;;7357604;19;20642;-37
2021/12/27 07:21:38;;;;;;;3.10;2.67;;;6.70;84.60;;;;;;7366633;19;20606;-37
2021/12/27 07:24:08;;;;;;;4.90;3.03;;;6.60;85.00;;;;;;7365597;19;20595;-37
2021/12/27 07:26:37;;;;;;;6.63;3.40;;;6.70;84.60;;;;;;7369015;19;20138;-37
2021/12/27 07:29:07;;;;;;;4.65;3.15;;;6.60;84.50;;;;;;7369454;19;20153;-37
2021/12/27 07:31:36;;;;;;;5.57;3.72;;;6.60;84.50;;;;;;7368267;19;20139;-37
2021/12/27 07:34:06;;;;;;;7.78;4.03;;;6.50;84.70;;;;;;7367812;19;20128;-37
2021/12/27 07:36:41;;;;;;;8.20;3.95;;;6.60;85.20;;;;;;7371286;19;20674;-37
2021/12/27 07:39:10;;;;;;;7.47;4.60;;;6.60;84.70;;;;;;7366860;19;20144;-37
2021/12/27 07:41:40;;;;;;;5.88;3.90;;;6.60;84.90;;;;;;7373745;19;20615;-37
2021/12/27 07:44:11;;;;;;;8.65;4.20;;;6.70;84.20;;;;;;7362747;19;20521;-37
2021/12/27 07:46:42;;;;;;;4.80;3.78;;;6.80;83.90;;;;;;7360477;19;20135;-37
2021/12/27 07:49:13;;;;;;;5.32;3.75;;;6.70;84.40;;;;;;7361201;19;20602;-37
2021/12/27 07:51:46;;;;;;;4.15;3.15;;;6.80;84.30;;;;;;7362989;19;20148;-37
2021/12/27 07:54:16;;;;;;;3.65;3.05;;;6.90;84.00;;;;;;7365940;19;20119;-37
2021/12/27 07:56:45;;;;;;;3.33;3.03;;;7.00;83.90;;;;;;7373157;19;20583;-36
2021/12/27 07:59:15;;;;;;;7.68;3.05;;;7.00;83.30;;;;;;7364898;19;20586;-37
2021/12/27 08:01:44;;;;;;;4.65;3.58;;;7.00;83.40;;;;;;7353922;19;20614;-37
2021/12/27 08:04:14;;;;;;;4.32;3.65;;;7.00;83.40;;;;;;7360715;19;20134;-37
2021/12/27 08:06:49;;;;;;;7.43;4.50;;;7.10;83.30;;;;;;7371198;19;20655;-37
2021/12/27 08:09:21;;;;;;;5.00;3.78;;;7.10;83.30;;;;;;7365394;19;20131;-36
2021/12/27 08:11:50;;;;;;;4.88;4.03;;;7.10;83.00;;;;;;7360534;19;20156;-36
2021/12/27 08:14:20;;;;;;;4.90;4.20;;;7.10;83.50;;;;;;7365805;19;21415;-37
2021/12/27 08:16:50;;;;;;;4.00;3.58;;;7.20;83.50;;;;;;7363876;19;20485;-37
2021/12/27 08:19:20;;;;;;;5.07;3.40;;;7.20;83.30;;;;;;7368339;19;20151;-37
2021/12/27 08:21:54;;;;;;;4.90;3.75;;;7.30;83.40;;;;;;7361843;19;20689;-37
2021/12/27 08:24:24;;;;;;;3.97;3.60;;;7.30;83.30;;;;;;7362197;19;20136;-36
2021/12/27 08:26:54;;;;;;;4.50;3.95;;;7.50;82.90;;;;;;7357714;19;20733;-37
2021/12/27 08:29:24;;;;;;;7.50;4.20;;;7.60;83.20;;;;;;7362714;19;20139;-37
2021/12/27 08:31:53;;;;;;;3.60;2.95;;;7.60;82.00;;;;;;7370399;19;20480;-36
2021/12/27 08:34:23;;;;;;;5.57;3.60;;;7.60;82.10;;;;;;7356977;19;21341;-37
2021/12/27 08:36:55;;;;;;;4.90;3.30;;;7.60;82.20;;;;;;7358514;19;20160;-36
2021/12/27 08:39:25;;;;;;;5.10;3.92;;;7.60;81.80;;;;;;7364388;19;20135;-37
2021/12/27 08:41:55;;;;;;;3.53;3.22;;;7.70;82.00;;;;;;7360398;19;20134;-37
2021/12/27 08:44:25;;;;;;;3.35;3.00;;;7.80;81.90;;;;;;7351997;19;20621;-37
2021/12/27 08:46:57;;;;;;;3.90;3.40;;;7.80;81.90;;;;;;7365089;19;20124;-36
2021/12/27 08:49:26;;;;;;;6.15;3.97;;;7.90;81.70;;;;;;7361173;19;20138;-40
2021/12/27 08:51:59;;;;;;;4.68;3.95;;;8.10;81.30;;;;;;7369913;19;20511;-40
2021/12/27 08:54:28;;;;;;;4.85;3.90;;;8.10;81.10;;;;;;7360285;19;20146;-40
2021/12/27 08:56:58;;;;;;;4.95;3.90;;;8.20;81.40;;;;;;7366237;19;20134;-40
2021/12/27 08:59:27;;;;;;;8.43;3.70;;;8.30;80.80;;;;;;7362217;19;20142;-40
2021/12/27 09:01:57;;;;;;;4.43;3.10;;;8.40;81.20;;;;;;7364578;19;20611;-40
2021/12/27 09:04:26;;;;;;;2.88;2.60;;;8.70;80.90;;;;;;7366025;19;20606;-40
2021/12/27 09:06:59;;;;;;;8.07;3.20;;;8.80;78.60;;;;;;7364535;19;20240;-40
2021/12/27 09:09:29;;;;;;;5.05;4.25;;;10.10;75.30;;;;;;7367576;19;21022;-40
2021/12/27 09:11:59;;;;;;;2.53;2.33;;;10.90;71.30;;;;;;7353226;19;20151;-40
2021/12/27 09:14:29;;;;;;;3.87;2.70;;;11.50;67.90;;;;;;7369587;19;20124;-41
2021/12/27 09:16:58;;;;;;;2.97;2.40;;;12.00;65.50;;;;;;7357118;19;20377;-40
2021/12/27 09:19:31;;;;;;;2.57;2.20;;;12.50;64.00;;;;;;7363750;19;28036;-41
2021/12/27 09:22:03;;;;;;;4.60;3.00;;;13.20;62.50;;;;;;7368759;19;20395;-41
2021/12/27 09:24:33;;;;;;;3.10;2.50;;;14.00;60.90;;;;;;7366215;19;20400;-40
2021/12/27 09:27:02;;;;;;;3.07;2.40;;;13.90;58.10;;;;;;7364313;19;20405;-41
2021/12/27 09:29:32;;;;;;;9.10;2.60;;;13.40;59.20;;;;;;7369409;19;20397;-41
2021/12/27 09:32:01;;;;;;;3.00;1.97;;;12.70;60.70;;;;;;7370056;19;20376;-40
2021/12/27 09:34:33;;;;;;;2.33;2.10;;;12.20;62.80;;;;;;7357510;19;20514;-41
2021/12/27 09:37:05;;;;;;;2.83;2.17;;;11.80;63.40;;;;;;7372011;19;20399;-41
2021/12/27 09:39:35;;;;;;;2.90;2.60;;;11.50;64.60;;;;;;7361964;19;20384;-41
2021/12/27 09:42:06;;;;;;;5.00;2.67;;;11.20;66.50;;;;;;7369079;19;20383;-40
2021/12/27 09:44:35;;;;;;;2.43;2.23;;;11.00;67.00;;;;;;7371656;19;21393;-40
2021/12/27 09:47:08;;;;;;;2.80;2.53;;;10.90;67.40;;;;;;7367906;19;20384;-40
2021/12/27 09:49:38;;;;;;;4.80;3.10;;;10.40;67.70;;;;;;7371872;19;20392;-37
2021/12/27 09:52:11;;;;;;;4.17;3.63;;;10.70;68.30;;;;;;7373828;19;21029;-37
2021/12/27 09:54:41;;;;;;;6.97;3.07;;;10.60;68.90;;;;;;7363817;19;20376;-37
2021/12/27 09:57:11;;;;;;;2.97;2.67;;;10.40;69.30;;;;;;7373347;19;20372;-37
2021/12/27 09:59:42;;;;;;;3.90;3.00;;;10.40;70.00;;;;;;7360441;19;20412;-37
2021/12/27 10:02:14;;;;;;;5.60;3.10;;;10.40;69.40;;;;;;7371926;19;20388;-36
2021/12/27 10:04:47;;;;;;;4.00;3.17;;;10.40;70.00;;;;;;7375395;19;20381;-37
2021/12/27 10:07:27;;;;;;;4.53;2.87;;;10.20;69.80;;;;;;7369135;19;20403;-37
2021/12/27 10:10:00;;;;;;;2.90;2.67;;;10.30;70.00;;;;;;7375956;19;20372;-37
2021/12/27 10:12:32;;;;;;;2.80;2.50;;;10.40;69.70;;;;;;7355380;19;20380;-37
2021/12/27 10:15:04;;;;;;;3.70;2.83;;;10.50;69.30;;;;;;7374292;19;20377;-37
2021/12/27 10:17:34;;;;;;;3.87;2.87;;;10.50;69.30;;;;;;7367053;19;21042;-36
2021/12/27 10:20:13;;;;;;;2.80;2.40;;;10.40;70.80;;;;;;7366302;19;20388;-37
2021/12/27 10:22:47;;;;;;;2.60;2.40;;;10.20;70.30;;;;;;7369464;19;20445;-37
2021/12/27 10:25:17;;;;;;;2.50;2.30;;;10.20;70.60;;;;;;7365472;19;20391;-36
2021/12/27 10:27:48;;;;;;;3.60;2.73;;;10.00;70.80;;;;;;7360862;19;20376;-37
2021/12/27 10:30:20;;;;;;;2.60;2.40;;;10.00;71.40;;;;;;7372371;19;21230;-40
2021/12/27 10:33:08;;;;;;;4.90;2.33;;;9.80;72.80;;;;;;7375281;19;20391;-40
2021/12/27 10:35:40;;;;;;;3.38;2.67;;;9.70;73.60;;;;;;7375042;19;20148;-40
2021/12/27 10:38:24;;;;;;;3.78;2.78;;;9.50;73.70;;;;;;7366477;19;20129;-40
2021/12/27 10:40:56;;;;;;;8.27;3.25;;;9.50;74.30;;;;;;7371943;19;20605;-40
2021/12/27 10:43:38;;;;;;;4.90;2.90;;;9.50;74.30;;;;;;7374973;19;21012;-40
2021/12/27 10:46:09;;;;;;;2.90;2.58;;;9.50;74.40;;;;;;7373829;19;20486;-40
2021/12/27 10:48:41;;;;;;;2.60;2.40;;;9.50;74.40;;;;;;7374400;19;20598;-40
2021/12/27 10:51:12;;;;;;;4.72;2.75;;;9.50;74.80;;;;;;7376739;19;20617;-40
2021/12/27 10:53:49;;;;;;;4.45;3.65;;;9.50;75.10;;;;;;7373901;19;20143;-40
2021/12/27 10:56:22;;;;;;;6.10;3.50;;;9.50;75.30;;;;;;7367785;19;20632;-40
2021/12/27 10:58:53;;;;;;;3.53;2.70;;;9.60;74.70;;;;;;7372318;19;20416;-40
2021/12/27 11:01:26;;;;;;;4.38;2.80;;;9.70;74.40;;;;;;7369207;19;20526;-40
2021/12/27 11:03:58;;;;;;;3.10;2.60;;;9.70;74.10;;;;;;7372778;19;20595;-40
2021/12/27 11:06:29;;;;;;;3.38;2.40;;;9.80;73.40;;;;;;7365369;19;20146;-40
2021/12/27 11:09:01;;;;;;;3.83;2.55;;;10.10;72.10;;;;;;7370263;19;20135;-40
2021/12/27 11:11:30;;;;;;;2.90;2.57;;;10.90;69.80;;;;;;7355605;19;20148;-40
2021/12/27 11:14:01;;;;;;;3.20;2.90;;;13.30;63.30;;;;;;7368222;19;20414;-41
2021/12/27 11:16:30;;;;;;;2.43;2.10;;;16.10;56.30;;;;;;7374679;19;20928;-40
2021/12/27 11:19:03;;;;;;;3.20;2.30;;;18.70;51.00;;;;;;7369422;19;20417;-41
2021/12/27 11:21:35;;;;;;;2.27;2.07;;;20.30;45.50;;;;;;7360349;19;20380;-41
2021/12/27 11:24:08;;;;;;;2.17;1.97;;;20.00;44.80;;;;;;7362165;19;20375;-41
2021/12/27 11:26:40;;;;;;;3.20;2.00;;;18.80;46.10;;;;;;7364259;19;20349;-41
2021/12/27 11:29:18;;;;;;;2.87;2.30;;;17.10;48.70;;;;;;7360902;19;20372;-41
2021/12/27 11:31:50;;;;;;;3.00;2.50;;;16.10;51.40;;;;;;7365651;19;20735;-41
2021/12/27 11:34:22;;;;;;;2.93;1.80;;;15.00;53.10;;;;;;7371641;19;20759;-41
2021/12/27 11:36:56;;;;;;;3.00;2.73;;;14.40;55.30;;;;;;7363529;19;20391;-41
2021/12/27 11:39:32;;;;;;;2.50;2.30;;;14.00;56.00;;;;;;7359425;19;20427;-41
2021/12/27 11:42:04;;;;;;;2.77;2.27;;;13.80;57.40;;;;;;7362551;19;20732;-41
2021/12/27 11:44:40;;;;;;;2.40;2.07;;;13.60;57.70;;;;;;7367445;19;20754;-41
2021/12/27 11:47:11;;;;;;;2.73;2.40;;;13.40;58.70;;;;;;7371859;19;20387;-41
2021/12/27 11:49:48;;;;;;;2.50;2.30;;;13.10;58.10;;;;;;7369960;19;20372;-41
2021/12/27 11:52:20;;;;;;;4.13;2.40;;;13.00;59.10;;;;;;7363362;19;20902;-41
2021/12/27 11:55:01;;;;;;;3.17;2.60;;;13.00;58.80;;;;;;7359112;19;20375;-41
2021/12/27 11:57:52;;;;;;;2.30;2.03;;;12.90;59.10;;;;;;7358418;19;20864;-40
2021/12/27 12:00:42;;;;;;;3.20;2.87;;;12.90;59.00;;;;;;7370834;19;20902;-40
2021/12/27 12:03:37;;;;;;;4.50;3.43;;;12.80;59.70;;;;;;7356330;19;20412;-40
2021/12/27 12:06:30;;;;;;;4.03;3.03;;;12.90;60.00;;;;;;7365639;19;20372;-40
2021/12/27 12:09:00;;;;;;;4.00;3.10;;;12.90;60.30;;;;;;7367576;19;20391;-40
2021/12/27 12:11:34;;;;;;;4.63;3.13;;;13.00;60.60;;;;;;7360325;19;20853;-40
2021/12/27 12:14:26;;;;;;;4.30;3.40;;;13.20;60.20;;;;;;7361397;19;20364;-39
2021/12/27 12:16:56;;;;;;;3.33;3.03;;;13.00;59.80;;;;;;7370182;19;20477;-39
2021/12/27 12:19:43;;;;;;;4.20;3.13;;;12.90;60.00;;;;;;7369552;19;20419;-39
2021/12/27 12:22:34;;;;;;;3.60;3.30;;;12.80;60.10;;;;;;7369834;19;20382;-39
2021/12/27 12:25:18;;;;;;;4.83;2.80;;;12.50;61.10;;;;;;7368357;19;20380;-39
2021/12/27 12:27:59;;;;;;;3.53;3.23;;;12.10;62.80;;;;;;7369783;19;20479;-39
2021/12/27 12:30:32;;;;;;;5.57;3.53;;;11.90;64.10;;;;;;7365508;19;20368;-39
2021/12/27 12:33:06;;;;;;;3.63;2.87;;;11.90;64.40;;;;;;7365197;19;20387;-39
2021/12/27 12:35:41;;;;;;;3.03;2.83;;;11.70;65.40;;;;;;7368154;19;20372;-39
2021/12/27 12:38:20;;;;;;;3.70;2.90;;;11.70;65.50;;;;;;7369698;19;20386;-39
2021/12/27 12:41:04;;;;;;;4.57;4.03;;;11.60;65.80;;;;;;7362674;19;20371;-39
2021/12/27 12:43:43;;;;;;;3.47;3.03;;;11.50;66.50;;;;;;7372294;19;20372;-39
2021/12/27 12:46:21;;;;;;;4.40;3.47;;;11.30;66.70;;;;;;7365334;19;21060;-39
2021/12/27 12:49:07;;;;;;;3.97;3.50;;;11.30;67.20;;;;;;7374157;19;20372;-39
2021/12/27 12:51:43;;;;;;;4.40;3.53;;;11.30;66.90;;;;;;7372774;19;20419;-39
2021/12/27 12:54:26;;;;;;;5.00;3.93;;;11.40;67.50;;;;;;7374818;19;20391;-39
2021/12/27 12:56:58;;;;;;;4.30;3.17;;;11.50;67.60;;;;;;7374397;19;20380;-39
2021/12/27 12:59:32;;;;;;;5.07;3.63;;;11.60;66.50;;;;;;7375209;19;20368;-38
2021/12/27 13:02:06;;;;;;;5.93;3.03;;;11.70;66.10;;;;;;7371940;19;20379;-36
2021/12/27 13:04:53;;;;;;;3.90;2.90;;;11.80;65.90;;;;;;7377246;19;20391;-36
2021/12/27 13:07:44;;;;;;;2.87;2.60;;;11.90;65.30;;;;;;7374360;19;20929;-36
2021/12/27 13:10:21;;;;;;;3.60;3.23;;;11.80;64.50;;;;;;7371725;19;21009;-36
2021/12/27 13:12:51;;;;;;;5.60;3.13;;;11.80;64.80;;;;;;7372922;19;20376;-36
2021/12/27 13:15:27;;;;;;;3.60;3.30;;;11.80;64.90;;;;;;7369574;19;21166;-37
2021/12/27 13:18:07;;;;;;;3.30;3.00;;;11.90;65.40;;;;;;7344716;19;20423;-36
2021/12/27 13:20:39;;;;;;;3.20;2.67;;;11.90;65.60;;;;;;7374671;19;20368;-37